Airfield :
LOGIN :

Register | Disclaimer

   EN    FR    IT 

 










Legend :    VFR   Marginal VFR   IFR   Intensive IFR   Very Intensive IFR
Visi :
Ceiling :
>= 8 km
>= 3000ft
5 to 8 km
1000 to 3000 ft
1500m to 5 km
500 to 1000 ft
800 to 1500m
200 to 500 ft
< 800m
< 200 ft
Symbols :   Thunderstorms  Fog  Heavy snow  Heavy precipitations  Wind > 20 kt
SIGMETs :     Misc.  Thunderstorms  Icing  Turbulence  Mountain Waves  Volcanic Ashes







- Airport Elevation : 20 ft


EBFN - Koksijde

CURRENT METAR :
  • 200913Z AUTO 18008KT 9999 -RA OVC023/// 04/04 Q1003 WHT

EXPIRED METARs :
  • 200855Z AUTO 19009KT 9999 DZ OVC039/// 04/04 Q1003 BLU
  • 200825Z AUTO 19009KT 9999 DZ FEW029/// OVC049/// 04/03 Q1003 BLU
  • 200813Z AUTO 18010KT 9999 -DZ FEW029/// OVC064/// 04/03 Q1004 BLU
  • 200755Z AUTO 19010KT 9999 DZ SCT020/// OVC064/// 03/03 Q1004 WHT
  • 200725Z AUTO 19009KT 9999 BKN022/// OVC057/// 04/03 Q1004 WHT
  • 200712Z AUTO 19009KT 9999 BKN023/// BKN059/// 04/03 Q1004 WHT
  • 200655Z AUTO 19008KT 9999 SCT038/// BKN064/// BKN100/// 03/03 Q1004 BLU
  • 200625Z AUTO 18007KT 9999 OVC100/// 03/03 Q1005 BLU

TAF TAF EBFN
Valid from the 20 at 07:00 until the 20 at 16:00 UTC


200541Z 2007/2016 17008KT 9999 FEW010 SCT120
BECMG 2008/2010 6000 BKN007 OVC010
TEMPO 2008/2016 3000 DZRA BKN004 OVC007
PROB40
TEMPO 2009/2015 1500 +DZRA BKN002 OVC005
TEMPO 2014/2016 VAR03KT
No reported NOTAMs for that airfield.



MET'MAP, your aeronautical weather chart ! - Copyright ORBIFLY December 2007 - Disclaimer

ORBIFLY MET'MAP TEAM :

Programming & Development : Alexandra Zaïnal
Concept & Development : Baudouin d'Aumeries
Co-Development & Prog : Marc-Olivier Méhu
Technical & hardware support : Manuel Goepfert

Contact : metmap@orbifly.com




SOURCES & CREDITS :

   NOAA